sensor_id;sensor_type;location;lat;lon;timestamp;pressure;altitude;pressure_sealevel;temperature;humidity
73063;BME280;61230;46.328;19.972;2022-09-13T00:00:48;100513.16;;;12.84;81.58
73063;BME280;61230;46.328;19.972;2022-09-13T00:03:16;100514.81;;;12.85;81.13
73063;BME280;61230;46.328;19.972;2022-09-13T00:05:45;100512.78;;;12.79;81.01
73063;BME280;61230;46.328;19.972;2022-09-13T00:08:13;100493.19;;;12.64;81.08
73063;BME280;61230;46.328;19.972;2022-09-13T00:10:41;100499.38;;;12.55;81.22
73063;BME280;61230;46.328;19.972;2022-09-13T00:13:11;100505.03;;;12.42;81.77
73063;BME280;61230;46.328;19.972;2022-09-13T00:15:44;100499.97;;;12.49;81.97
73063;BME280;61230;46.328;19.972;2022-09-13T00:18:13;100501.25;;;12.45;82.46
73063;BME280;61230;46.328;19.972;2022-09-13T00:20:40;100494.13;;;12.37;82.46
73063;BME280;61230;46.328;19.972;2022-09-13T00:23:09;100493.06;;;12.48;82.88
73063;BME280;61230;46.328;19.972;2022-09-13T00:25:37;100498.88;;;12.51;82.23
73063;BME280;61230;46.328;19.972;2022-09-13T00:28:05;100494.69;;;12.49;82.32
73063;BME280;61230;46.328;19.972;2022-09-13T00:30:33;100495.63;;;12.40;81.96
73063;BME280;61230;46.328;19.972;2022-09-13T00:33:00;100493.56;;;12.34;81.37
73063;BME280;61230;46.328;19.972;2022-09-13T00:35:31;100495.50;;;12.32;81.69
73063;BME280;61230;46.328;19.972;2022-09-13T00:37:59;100501.78;;;12.31;81.71
73063;BME280;61230;46.328;19.972;2022-09-13T00:40:27;100498.56;;;12.37;81.47
73063;BME280;61230;46.328;19.972;2022-09-13T00:42:56;100503.28;;;12.33;82.29
73063;BME280;61230;46.328;19.972;2022-09-13T00:45:24;100495.22;;;12.17;83.53
73063;BME280;61230;46.328;19.972;2022-09-13T00:48:00;100503.09;;;11.72;84.19
73063;BME280;61230;46.328;19.972;2022-09-13T00:50:35;100504.28;;;11.41;85.86
73063;BME280;61230;46.328;19.972;2022-09-13T00:53:08;100504.41;;;11.49;85.74
73063;BME280;61230;46.328;19.972;2022-09-13T00:55:42;100500.88;;;11.77;85.45
73063;BME280;61230;46.328;19.972;2022-09-13T00:58:17;100507.00;;;11.59;85.38
73063;BME280;61230;46.328;19.972;2022-09-13T01:00:47;100491.72;;;11.72;86.44
73063;BME280;61230;46.328;19.972;2022-09-13T01:03:19;100498.03;;;11.88;84.46
73063;BME280;61230;46.328;19.972;2022-09-13T01:05:52;100503.00;;;11.91;85.10
73063;BME280;61230;46.328;19.972;2022-09-13T01:08:22;100510.38;;;11.88;84.52
73063;BME280;61230;46.328;19.972;2022-09-13T01:10:51;100499.97;;;11.86;84.98
73063;BME280;61230;46.328;19.972;2022-09-13T01:13:24;100511.50;;;11.85;85.07
73063;BME280;61230;46.328;19.972;2022-09-13T01:15:52;100516.19;;;11.91;83.98
73063;BME280;61230;46.328;19.972;2022-09-13T01:18:20;100522.13;;;11.93;84.04
73063;BME280;61230;46.328;19.972;2022-09-13T01:30:04;100512.97;;;11.61;84.96
73063;BME280;61230;46.328;19.972;2022-09-13T01:32:59;100516.41;;;11.61;84.69
73063;BME280;61230;46.328;19.972;2022-09-13T01:44:26;100509.06;;;11.18;86.75
73063;BME280;61230;46.328;19.972;2022-09-13T01:52:24;100505.78;;;11.07;86.84
73063;BME280;61230;46.328;19.972;2022-09-13T01:55:08;100504.47;;;11.30;86.65
73063;BME280;61230;46.328;19.972;2022-09-13T02:00:19;100507.94;;;11.30;86.73
73063;BME280;61230;46.328;19.972;2022-09-13T02:08:15;100507.13;;;11.20;84.90
73063;BME280;61230;46.328;19.972;2022-09-13T02:10:53;100492.19;;;11.02;85.33
73063;BME280;61230;46.328;19.972;2022-09-13T02:13:26;100507.81;;;11.13;85.33
73063;BME280;61230;46.328;19.972;2022-09-13T02:16:01;100510.91;;;11.18;85.26
73063;BME280;61230;46.328;19.972;2022-09-13T02:18:35;100501.87;;;11.11;85.74
73063;BME280;61230;46.328;19.972;2022-09-13T02:21:12;100511.34;;;11.04;86.11
73063;BME280;61230;46.328;19.972;2022-09-13T02:23:50;100504.13;;;11.15;85.31
73063;BME280;61230;46.328;19.972;2022-09-13T02:26:22;100492.06;;;10.93;86.52
73063;BME280;61230;46.328;19.972;2022-09-13T02:28:51;100495.69;;;10.73;86.93
73063;BME280;61230;46.328;19.972;2022-09-13T02:31:28;100503.19;;;10.78;87.06
73063;BME280;61230;46.328;19.972;2022-09-13T02:33:59;100499.03;;;10.37;88.61
73063;BME280;61230;46.328;19.972;2022-09-13T02:36:33;100503.03;;;10.31;89.32
73063;BME280;61230;46.328;19.972;2022-09-13T02:39:05;100506.09;;;10.36;89.11
73063;BME280;61230;46.328;19.972;2022-09-13T02:41:53;100507.72;;;10.28;89.14
73063;BME280;61230;46.328;19.972;2022-09-13T02:44:37;100498.88;;;10.29;88.86
73063;BME280;61230;46.328;19.972;2022-09-13T02:55:16;100497.38;;;10.26;88.37
73063;BME280;61230;46.328;19.972;2022-09-13T02:58:02;100502.59;;;10.17;88.28
73063;BME280;61230;46.328;19.972;2022-09-13T03:00:33;100503.19;;;10.39;87.44
73063;BME280;61230;46.328;19.972;2022-09-13T03:03:05;100501.94;;;10.53;87.38
73063;BME280;61230;46.328;19.972;2022-09-13T03:05:35;100507.38;;;10.61;87.73
73063;BME280;61230;46.328;19.972;2022-09-13T03:08:04;100504.72;;;10.52;87.08
73063;BME280;61230;46.328;19.972;2022-09-13T03:16:51;100496.84;;;10.02;88.16
73063;BME280;61230;46.328;19.972;2022-09-13T03:25:38;100503.28;;;10.19;87.60
73063;BME280;61230;46.328;19.972;2022-09-13T03:37:02;100506.94;;;10.66;86.07
73063;BME280;61230;46.328;19.972;2022-09-13T03:39:52;100506.91;;;10.37;86.32
73063;BME280;61230;46.328;19.972;2022-09-13T03:42:31;100502.38;;;9.90;88.01
73063;BME280;61230;46.328;19.972;2022-09-13T03:45:01;100506.81;;;9.89;88.66
73063;BME280;61230;46.328;19.972;2022-09-13T03:47:33;100510.69;;;9.95;88.12
73063;BME280;61230;46.328;19.972;2022-09-13T03:50:04;100505.88;;;10.09;87.62
73063;BME280;61230;46.328;19.972;2022-09-13T03:52:34;100505.47;;;10.04;87.11
73063;BME280;61230;46.328;19.972;2022-09-13T03:55:02;100500.03;;;9.96;87.27
73063;BME280;61230;46.328;19.972;2022-09-13T03:57:29;100506.91;;;9.88;87.39
73063;BME280;61230;46.328;19.972;2022-09-13T03:59:57;100505.13;;;9.88;87.21
73063;BME280;61230;46.328;19.972;2022-09-13T04:02:25;100504.66;;;10.13;86.78
73063;BME280;61230;46.328;19.972;2022-09-13T04:04:53;100503.62;;;10.05;87.14
73063;BME280;61230;46.328;19.972;2022-09-13T04:07:23;100483.72;;;10.02;87.05
73063;BME280;61230;46.328;19.972;2022-09-13T04:09:51;100502.22;;;10.21;86.80
73063;BME280;61230;46.328;19.972;2022-09-13T04:12:19;100505.28;;;9.87;87.01
73063;BME280;61230;46.328;19.972;2022-09-13T04:14:46;100501.66;;;9.78;87.68
73063;BME280;61230;46.328;19.972;2022-09-13T04:17:14;100503.38;;;9.98;86.82
73063;BME280;61230;46.328;19.972;2022-09-13T04:19:43;100492.94;;;10.27;86.46
73063;BME280;61230;46.328;19.972;2022-09-13T04:22:13;100504.97;;;10.29;87.12
73063;BME280;61230;46.328;19.972;2022-09-13T04:24:40;100502.75;;;10.25;86.77
73063;BME280;61230;46.328;19.972;2022-09-13T04:27:09;100496.81;;;10.32;87.08
73063;BME280;61230;46.328;19.972;2022-09-13T04:29:38;100494.19;;;10.42;87.17
73063;BME280;61230;46.328;19.972;2022-09-13T04:32:05;100495.97;;;10.42;86.33
73063;BME280;61230;46.328;19.972;2022-09-13T04:34:33;100503.31;;;10.38;86.40
73063;BME280;61230;46.328;19.972;2022-09-13T04:37:00;100500.44;;;10.41;86.12
73063;BME280;61230;46.328;19.972;2022-09-13T04:39:28;100513.16;;;10.55;85.31
73063;BME280;61230;46.328;19.972;2022-09-13T04:41:56;100522.59;;;10.58;84.39
73063;BME280;61230;46.328;19.972;2022-09-13T04:44:24;100521.91;;;10.56;83.83
73063;BME280;61230;46.328;19.972;2022-09-13T04:46:51;100530.06;;;10.53;83.55
73063;BME280;61230;46.328;19.972;2022-09-13T04:49:19;100522.72;;;10.56;83.63
73063;BME280;61230;46.328;19.972;2022-09-13T04:51:48;100524.53;;;10.56;83.70
73063;BME280;61230;46.328;19.972;2022-09-13T04:54:16;100520.06;;;10.56;84.60
73063;BME280;61230;46.328;19.972;2022-09-13T04:56:44;100517.97;;;10.31;85.11
73063;BME280;61230;46.328;19.972;2022-09-13T04:59:12;100514.47;;;10.11;86.57
73063;BME280;61230;46.328;19.972;2022-09-13T05:01:40;100519.66;;;10.32;85.68
73063;BME280;61230;46.328;19.972;2022-09-13T05:04:13;100517.16;;;10.40;85.54
73063;BME280;61230;46.328;19.972;2022-09-13T05:06:41;100516.91;;;10.62;86.01
73063;BME280;61230;46.328;19.972;2022-09-13T05:09:13;100515.66;;;10.57;85.60
73063;BME280;61230;46.328;19.972;2022-09-13T05:11:41;100521.03;;;10.65;85.11
73063;BME280;61230;46.328;19.972;2022-09-13T05:14:09;100521.06;;;10.74;85.22
73063;BME280;61230;46.328;19.972;2022-09-13T05:16:37;100531.28;;;10.87;85.39
73063;BME280;61230;46.328;19.972;2022-09-13T05:19:05;100527.97;;;10.85;85.87
73063;BME280;61230;46.328;19.972;2022-09-13T05:21:33;100516.19;;;10.89;85.55
73063;BME280;61230;46.328;19.972;2022-09-13T05:24:00;100541.09;;;11.14;84.67
73063;BME280;61230;46.328;19.972;2022-09-13T05:26:29;100536.78;;;11.32;83.86
73063;BME280;61230;46.328;19.972;2022-09-13T05:29:01;100552.25;;;11.44;82.24
73063;BME280;61230;46.328;19.972;2022-09-13T05:31:39;100559.47;;;11.52;82.07
73063;BME280;61230;46.328;19.972;2022-09-13T05:34:10;100551.12;;;11.47;82.27
73063;BME280;61230;46.328;19.972;2022-09-13T05:36:38;100551.72;;;11.41;81.59
73063;BME280;61230;46.328;19.972;2022-09-13T05:39:06;100562.69;;;11.46;81.68
73063;BME280;61230;46.328;19.972;2022-09-13T05:41:54;100553.66;;;11.39;81.22
73063;BME280;61230;46.328;19.972;2022-09-13T05:44:22;100562.56;;;11.38;81.83
73063;BME280;61230;46.328;19.972;2022-09-13T05:46:49;100558.66;;;11.42;81.59
73063;BME280;61230;46.328;19.972;2022-09-13T05:49:17;100560.53;;;11.59;81.79
73063;BME280;61230;46.328;19.972;2022-09-13T05:51:45;100560.66;;;11.67;80.69
73063;BME280;61230;46.328;19.972;2022-09-13T05:54:12;100560.41;;;11.70;80.83
73063;BME280;61230;46.328;19.972;2022-09-13T05:56:40;100561.22;;;11.80;80.97
73063;BME280;61230;46.328;19.972;2022-09-13T05:59:10;100566.00;;;11.94;80.77
73063;BME280;61230;46.328;19.972;2022-09-13T06:01:39;100560.09;;;12.10;80.76
73063;BME280;61230;46.328;19.972;2022-09-13T06:04:07;100554.69;;;12.74;80.68
73063;BME280;61230;46.328;19.972;2022-09-13T06:06:34;100560.84;;;12.83;77.89
73063;BME280;61230;46.328;19.972;2022-09-13T06:09:02;100562.97;;;12.97;77.96
73063;BME280;61230;46.328;19.972;2022-09-13T06:11:33;100555.75;;;13.07;78.10
73063;BME280;61230;46.328;19.972;2022-09-13T06:14:00;100556.72;;;13.06;76.94
73063;BME280;61230;46.328;19.972;2022-09-13T06:16:28;100552.56;;;13.39;76.15
73063;BME280;61230;46.328;19.972;2022-09-13T06:18:57;100551.25;;;13.43;75.74
73063;BME280;61230;46.328;19.972;2022-09-13T06:21:24;100545.81;;;13.70;74.74
73063;BME280;61230;46.328;19.972;2022-09-13T06:23:56;100554.28;;;13.48;75.11
73063;BME280;61230;46.328;19.972;2022-09-13T06:26:25;100553.53;;;13.63;74.16
73063;BME280;61230;46.328;19.972;2022-09-13T06:28:55;100546.22;;;13.57;73.55
73063;BME280;61230;46.328;19.972;2022-09-13T06:31:25;100547.28;;;14.06;73.68
73063;BME280;61230;46.328;19.972;2022-09-13T06:33:58;100560.47;;;14.32;72.46
73063;BME280;61230;46.328;19.972;2022-09-13T06:36:28;100557.91;;;14.14;71.71
73063;BME280;61230;46.328;19.972;2022-09-13T06:38:56;100569.91;;;14.34;72.44
73063;BME280;61230;46.328;19.972;2022-09-13T06:41:24;100565.50;;;14.67;70.99
73063;BME280;61230;46.328;19.972;2022-09-13T06:43:57;100545.97;;;14.84;70.78
73063;BME280;61230;46.328;19.972;2022-09-13T06:46:27;100548.81;;;14.99;70.28
73063;BME280;61230;46.328;19.972;2022-09-13T06:49:02;100564.72;;;15.23;70.26
73063;BME280;61230;46.328;19.972;2022-09-13T06:51:31;100561.53;;;14.63;68.89
73063;BME280;61230;46.328;19.972;2022-09-13T06:54:00;100573.31;;;14.85;69.02
73063;BME280;61230;46.328;19.972;2022-09-13T06:56:34;100576.47;;;15.29;69.82
73063;BME280;61230;46.328;19.972;2022-09-13T06:59:05;100579.81;;;15.07;70.25
73063;BME280;61230;46.328;19.972;2022-09-13T07:01:38;100575.66;;;15.12;69.51
73063;BME280;61230;46.328;19.972;2022-09-13T07:04:11;100584.72;;;15.42;68.65
73063;BME280;61230;46.328;19.972;2022-09-13T07:06:41;100584.75;;;15.26;68.02
73063;BME280;61230;46.328;19.972;2022-09-13T07:09:12;100582.25;;;15.57;69.08
73063;BME280;61230;46.328;19.972;2022-09-13T07:11:40;100591.75;;;16.06;67.27
73063;BME280;61230;46.328;19.972;2022-09-13T07:14:12;100592.84;;;15.65;66.87
73063;BME280;61230;46.328;19.972;2022-09-13T07:16:40;100596.47;;;15.80;65.41
73063;BME280;61230;46.328;19.972;2022-09-13T07:19:16;100595.75;;;16.02;65.25
73063;BME280;61230;46.328;19.972;2022-09-13T07:21:45;100588.78;;;15.93;64.01
73063;BME280;61230;46.328;19.972;2022-09-13T07:24:12;100583.50;;;15.85;65.53
73063;BME280;61230;46.328;19.972;2022-09-13T07:26:40;100587.69;;;16.18;64.75
73063;BME280;61230;46.328;19.972;2022-09-13T07:29:10;100575.84;;;16.37;63.20
73063;BME280;61230;46.328;19.972;2022-09-13T07:31:40;100582.69;;;16.62;60.68
73063;BME280;61230;46.328;19.972;2022-09-13T07:34:16;100573.53;;;16.64;61.75
73063;BME280;61230;46.328;19.972;2022-09-13T07:36:44;100583.06;;;17.04;60.38
73063;BME280;61230;46.328;19.972;2022-09-13T07:39:14;100576.16;;;16.95;58.51
73063;BME280;61230;46.328;19.972;2022-09-13T07:41:47;100569.34;;;17.15;58.49
73063;BME280;61230;46.328;19.972;2022-09-13T07:44:15;100566.78;;;17.22;58.28
73063;BME280;61230;46.328;19.972;2022-09-13T07:46:43;100577.66;;;17.50;57.64
73063;BME280;61230;46.328;19.972;2022-09-13T07:49:12;100576.91;;;17.78;57.28
73063;BME280;61230;46.328;19.972;2022-09-13T07:51:41;100576.91;;;17.93;55.66
73063;BME280;61230;46.328;19.972;2022-09-13T07:54:14;100583.97;;;18.15;55.55
73063;BME280;61230;46.328;19.972;2022-09-13T07:56:43;100578.12;;;18.41;53.83
73063;BME280;61230;46.328;19.972;2022-09-13T07:59:14;100579.72;;;18.06;53.67
73063;BME280;61230;46.328;19.972;2022-09-13T08:01:47;100591.00;;;18.23;54.37
73063;BME280;61230;46.328;19.972;2022-09-13T08:04:17;100581.84;;;18.11;54.50
73063;BME280;61230;46.328;19.972;2022-09-13T08:06:45;100583.94;;;17.71;53.88
73063;BME280;61230;46.328;19.972;2022-09-13T08:09:13;100573.50;;;17.99;53.38
73063;BME280;61230;46.328;19.972;2022-09-13T08:11:47;100580.66;;;18.13;53.32
73063;BME280;61230;46.328;19.972;2022-09-13T08:14:16;100571.09;;;18.19;52.44
73063;BME280;61230;46.328;19.972;2022-09-13T08:16:45;100568.22;;;18.35;51.98
73063;BME280;61230;46.328;19.972;2022-09-13T08:19:15;100578.06;;;18.20;52.56
73063;BME280;61230;46.328;19.972;2022-09-13T08:21:44;100568.50;;;18.11;52.53
73063;BME280;61230;46.328;19.972;2022-09-13T08:24:15;100573.31;;;18.66;53.70
73063;BME280;61230;46.328;19.972;2022-09-13T08:26:44;100574.25;;;18.79;53.12
73063;BME280;61230;46.328;19.972;2022-09-13T08:29:13;100561.50;;;18.75;52.61
73063;BME280;61230;46.328;19.972;2022-09-13T08:31:41;100564.16;;;18.96;51.78
73063;BME280;61230;46.328;19.972;2022-09-13T08:34:12;100573.44;;;19.00;51.98
73063;BME280;61230;46.328;19.972;2022-09-13T08:36:42;100568.22;;;19.13;50.97
73063;BME280;61230;46.328;19.972;2022-09-13T08:39:10;100562.87;;;19.13;52.47
73063;BME280;61230;46.328;19.972;2022-09-13T08:46:41;100574.12;;;19.85;51.11
73063;BME280;61230;46.328;19.972;2022-09-13T08:49:25;100580.78;;;20.02;50.17
73063;BME280;61230;46.328;19.972;2022-09-13T08:54:42;100579.31;;;20.41;50.91
73063;BME280;61230;46.328;19.972;2022-09-13T08:57:17;100578.22;;;19.88;50.12
73063;BME280;61230;46.328;19.972;2022-09-13T09:02:38;100585.72;;;20.05;50.21
73063;BME280;61230;46.328;19.972;2022-09-13T09:05:17;100580.56;;;20.04;50.41
73063;BME280;61230;46.328;19.972;2022-09-13T09:07:53;100580.72;;;20.30;50.87
73063;BME280;61230;46.328;19.972;2022-09-13T09:10:32;100582.72;;;19.81;49.99
73063;BME280;61230;46.328;19.972;2022-09-13T09:13:05;100576.84;;;19.64;50.46
73063;BME280;61230;46.328;19.972;2022-09-13T09:15:39;100574.66;;;20.15;49.43
73063;BME280;61230;46.328;19.972;2022-09-13T09:18:21;100566.16;;;20.39;48.56
73063;BME280;61230;46.328;19.972;2022-09-13T09:20:56;100573.91;;;19.87;48.50
73063;BME280;61230;46.328;19.972;2022-09-13T09:23:40;100566.31;;;19.56;48.90
73063;BME280;61230;46.328;19.972;2022-09-13T09:26:18;100564.25;;;19.52;50.08
73063;BME280;61230;46.328;19.972;2022-09-13T09:28:55;100572.09;;;20.28;49.29
73063;BME280;61230;46.328;19.972;2022-09-13T09:31:50;100559.44;;;20.70;47.23
73063;BME280;61230;46.328;19.972;2022-09-13T09:37:20;100556.44;;;21.12;44.63
73063;BME280;61230;46.328;19.972;2022-09-13T09:39:48;100559.28;;;21.04;42.97
73063;BME280;61230;46.328;19.972;2022-09-13T09:42:21;100552.28;;;20.90;41.76
73063;BME280;61230;46.328;19.972;2022-09-13T09:44:54;100549.03;;;21.27;43.01
73063;BME280;61230;46.328;19.972;2022-09-13T09:47:38;100549.84;;;21.47;40.42
73063;BME280;61230;46.328;19.972;2022-09-13T09:50:16;100547.12;;;21.73;42.34
73063;BME280;61230;46.328;19.972;2022-09-13T09:52:57;100540.47;;;21.83;42.11
73063;BME280;61230;46.328;19.972;2022-09-13T09:55:28;100550.56;;;22.00;40.95
73063;BME280;61230;46.328;19.972;2022-09-13T09:58:02;100540.19;;;21.33;41.93
73063;BME280;61230;46.328;19.972;2022-09-13T10:00:49;100539.84;;;22.00;43.07
73063;BME280;61230;46.328;19.972;2022-09-13T10:03:32;100539.03;;;21.87;42.43
73063;BME280;61230;46.328;19.972;2022-09-13T10:06:21;100543.72;;;22.11;42.67
73063;BME280;61230;46.328;19.972;2022-09-13T10:09:05;100541.13;;;22.36;42.51
73063;BME280;61230;46.328;19.972;2022-09-13T10:11:42;100542.06;;;22.54;44.10
73063;BME280;61230;46.328;19.972;2022-09-13T10:14:35;100538.31;;;22.62;41.61
73063;BME280;61230;46.328;19.972;2022-09-13T10:20:02;100527.91;;;22.78;39.98
73063;BME280;61230;46.328;19.972;2022-09-13T10:22:31;100530.72;;;22.90;40.81
73063;BME280;61230;46.328;19.972;2022-09-13T10:25:23;100524.91;;;22.93;39.56
73063;BME280;61230;46.328;19.972;2022-09-13T10:27:56;100530.88;;;22.95;39.95
73063;BME280;61230;46.328;19.972;2022-09-13T10:30:35;100526.00;;;22.85;38.74
73063;BME280;61230;46.328;19.972;2022-09-13T10:33:05;100535.41;;;22.70;38.79
73063;BME280;61230;46.328;19.972;2022-09-13T10:35:34;100516.13;;;22.79;39.17
73063;BME280;61230;46.328;19.972;2022-09-13T10:41:06;100513.03;;;22.07;39.17
73063;BME280;61230;46.328;19.972;2022-09-13T10:43:36;100502.69;;;20.87;39.92
73063;BME280;61230;46.328;19.972;2022-09-13T10:46:09;100508.03;;;21.07;38.40
73063;BME280;61230;46.328;19.972;2022-09-13T10:48:46;100493.38;;;20.44;39.60
73063;BME280;61230;46.328;19.972;2022-09-13T10:54:17;100498.31;;;21.58;40.12
73063;BME280;61230;46.328;19.972;2022-09-13T10:56:54;100488.91;;;22.07;39.33
73063;BME280;61230;46.328;19.972;2022-09-13T10:59:32;100481.50;;;21.25;38.09
73063;BME280;61230;46.328;19.972;2022-09-13T11:11:09;100475.91;;;22.04;37.39
73063;BME280;61230;46.328;19.972;2022-09-13T11:13:48;100479.28;;;22.93;38.63
73063;BME280;61230;46.328;19.972;2022-09-13T11:16:36;100470.87;;;23.08;38.19
73063;BME280;61230;46.328;19.972;2022-09-13T11:19:27;100465.53;;;22.83;37.17
73063;BME280;61230;46.328;19.972;2022-09-13T11:25:48;100464.50;;;21.64;38.80
73063;BME280;61230;46.328;19.972;2022-09-13T11:28:06;100460.81;;;21.65;38.29
73063;BME280;61230;46.328;19.972;2022-09-13T11:34:18;100458.69;;;22.56;39.75
73063;BME280;61230;46.328;19.972;2022-09-13T11:45:40;100448.47;;;22.40;38.05
73063;BME280;61230;46.328;19.972;2022-09-13T11:56:26;100448.84;;;22.50;37.20
73063;BME280;61230;46.328;19.972;2022-09-13T11:59:25;100444.09;;;21.76;36.79
73063;BME280;61230;46.328;19.972;2022-09-13T12:02:09;100435.94;;;22.33;36.69
73063;BME280;61230;46.328;19.972;2022-09-13T12:04:53;100443.38;;;22.87;37.80
73063;BME280;61230;46.328;19.972;2022-09-13T12:07:48;100433.06;;;23.52;38.75
73063;BME280;61230;46.328;19.972;2022-09-13T12:14:05;100424.56;;;24.03;38.14
73063;BME280;61230;46.328;19.972;2022-09-13T12:16:41;100422.34;;;23.82;39.95
73063;BME280;61230;46.328;19.972;2022-09-13T12:21:51;100433.34;;;23.62;35.89
73063;BME280;61230;46.328;19.972;2022-09-13T12:24:33;100419.94;;;24.10;37.74
73063;BME280;61230;46.328;19.972;2022-09-13T12:27:11;100425.50;;;24.09;36.36
73063;BME280;61230;46.328;19.972;2022-09-13T12:29:49;100412.59;;;23.99;38.20
73063;BME280;61230;46.328;19.972;2022-09-13T12:32:18;100420.53;;;23.03;36.17
73063;BME280;61230;46.328;19.972;2022-09-13T12:35:02;100414.84;;;23.72;37.98
73063;BME280;61230;46.328;19.972;2022-09-13T13:02:39;100398.78;;;22.68;37.17
73063;BME280;61230;46.328;19.972;2022-09-13T13:05:24;100403.25;;;23.17;36.52
73063;BME280;61230;46.328;19.972;2022-09-13T13:07:57;100402.19;;;23.00;36.92
73063;BME280;61230;46.328;19.972;2022-09-13T13:10:32;100402.75;;;23.45;38.08
73063;BME280;61230;46.328;19.972;2022-09-13T13:13:23;100394.06;;;23.25;39.36
73063;BME280;61230;46.328;19.972;2022-09-13T13:16:04;100397.47;;;22.21;37.83
73063;BME280;61230;46.328;19.972;2022-09-13T13:21:05;100399.66;;;23.05;37.98
73063;BME280;61230;46.328;19.972;2022-09-13T13:26:53;100391.69;;;23.17;40.03
73063;BME280;61230;46.328;19.972;2022-09-13T13:29:23;100395.50;;;23.09;39.01
73063;BME280;61230;46.328;19.972;2022-09-13T13:34:45;100392.53;;;23.17;38.60
73063;BME280;61230;46.328;19.972;2022-09-13T13:39:46;100384.25;;;23.01;39.14
73063;BME280;61230;46.328;19.972;2022-09-13T13:42:28;100389.41;;;23.20;40.21
73063;BME280;61230;46.328;19.972;2022-09-13T13:52:50;100368.50;;;23.22;38.04
73063;BME280;61230;46.328;19.972;2022-09-13T13:55:38;100370.53;;;23.45;39.58
73063;BME280;61230;46.328;19.972;2022-09-13T14:00:34;100369.63;;;23.15;40.79
73063;BME280;61230;46.328;19.972;2022-09-13T14:08:50;100371.28;;;21.92;38.36
73063;BME280;61230;46.328;19.972;2022-09-13T14:11:31;100375.03;;;22.16;39.98
73063;BME280;61230;46.328;19.972;2022-09-13T14:17:32;100362.34;;;22.29;39.28
73063;BME280;61230;46.328;19.972;2022-09-13T14:20:12;100363.72;;;22.39;41.47
73063;BME280;61230;46.328;19.972;2022-09-13T14:22:42;100363.34;;;22.35;39.32
73063;BME280;61230;46.328;19.972;2022-09-13T14:25:22;100358.47;;;22.50;41.51
73063;BME280;61230;46.328;19.972;2022-09-13T14:27:54;100358.91;;;22.47;41.65
73063;BME280;61230;46.328;19.972;2022-09-13T14:30:24;100353.31;;;22.49;41.00
73063;BME280;61230;46.328;19.972;2022-09-13T14:32:56;100356.44;;;22.46;41.56
73063;BME280;61230;46.328;19.972;2022-09-13T14:40:49;100331.34;;;21.77;40.96
73063;BME280;61230;46.328;19.972;2022-09-13T14:43:25;100344.12;;;21.75;42.19
73063;BME280;61230;46.328;19.972;2022-09-13T14:48:58;100343.75;;;21.65;43.04
73063;BME280;61230;46.328;19.972;2022-09-13T14:51:49;100347.50;;;21.64;44.16
73063;BME280;61230;46.328;19.972;2022-09-13T14:56:57;100342.50;;;21.30;40.81
73063;BME280;61230;46.328;19.972;2022-09-13T14:59:39;100325.63;;;21.30;41.15
73063;BME280;61230;46.328;19.972;2022-09-13T15:02:25;100344.28;;;21.43;42.37
73063;BME280;61230;46.328;19.972;2022-09-13T15:04:55;100340.59;;;21.44;43.54
73063;BME280;61230;46.328;19.972;2022-09-13T15:10:27;100346.00;;;21.31;43.46
73063;BME280;61230;46.328;19.972;2022-09-13T15:15:41;100332.34;;;21.45;42.51
73063;BME280;61230;46.328;19.972;2022-09-13T15:20:47;100330.72;;;21.44;43.05
73063;BME280;61230;46.328;19.972;2022-09-13T15:23:31;100324.13;;;21.40;43.60
73063;BME280;61230;46.328;19.972;2022-09-13T15:26:01;100324.13;;;21.40;43.46
73063;BME280;61230;46.328;19.972;2022-09-13T15:28:52;100308.47;;;21.44;43.61
73063;BME280;61230;46.328;19.972;2022-09-13T15:31:23;100306.03;;;21.36;42.28
73063;BME280;61230;46.328;19.972;2022-09-13T15:34:11;100318.41;;;21.37;42.99
73063;BME280;61230;46.328;19.972;2022-09-13T15:36:48;100319.50;;;21.23;42.74
73063;BME280;61230;46.328;19.972;2022-09-13T15:39:18;100314.72;;;21.31;43.27
73063;BME280;61230;46.328;19.972;2022-09-13T15:41:57;100314.50;;;21.33;43.69
73063;BME280;61230;46.328;19.972;2022-09-13T15:44:27;100313.66;;;21.32;44.02
73063;BME280;61230;46.328;19.972;2022-09-13T15:46:59;100304.22;;;21.30;44.07
73063;BME280;61230;46.328;19.972;2022-09-13T15:49:31;100313.09;;;21.24;44.57
73063;BME280;61230;46.328;19.972;2022-09-13T15:52:01;100315.81;;;21.17;44.90
73063;BME280;61230;46.328;19.972;2022-09-13T15:54:36;100309.62;;;21.16;44.82
73063;BME280;61230;46.328;19.972;2022-09-13T15:57:24;100304.87;;;21.12;44.14
73063;BME280;61230;46.328;19.972;2022-09-13T15:59:53;100311.72;;;21.08;44.21
73063;BME280;61230;46.328;19.972;2022-09-13T16:02:27;100305.94;;;20.98;44.85
73063;BME280;61230;46.328;19.972;2022-09-13T16:04:55;100299.75;;;20.97;44.87
73063;BME280;61230;46.328;19.972;2022-09-13T16:07:24;100306.19;;;20.90;45.09
73063;BME280;61230;46.328;19.972;2022-09-13T16:09:52;100304.75;;;20.87;45.48
73063;BME280;61230;46.328;19.972;2022-09-13T16:12:20;100292.62;;;20.85;45.78
73063;BME280;61230;46.328;19.972;2022-09-13T16:14:50;100282.56;;;20.67;45.90
73063;BME280;61230;46.328;19.972;2022-09-13T16:17:25;100299.62;;;20.73;46.27
73063;BME280;61230;46.328;19.972;2022-09-13T16:19:54;100277.87;;;20.62;46.19
73063;BME280;61230;46.328;19.972;2022-09-13T16:22:22;100292.06;;;20.63;46.63
73063;BME280;61230;46.328;19.972;2022-09-13T16:24:49;100291.03;;;20.57;46.81
73063;BME280;61230;46.328;19.972;2022-09-13T16:27:18;100292.28;;;20.48;47.32